»·PEaware :: DAL1587 KSEA-KLAX

DAL1587 :: KSEA-KLAX

FLIGHT INFORMATION

Flight Status: Arrived
Operator:
Delta Air Lines
More flights by this operator :: More flights under this callsign
Pilot: Joshua A. (20601)
Aircraft: BOEING 737-800
(B738)
More flights by this aircraft type
Origin: KSEA Seattle-Tacoma Intl
United States
Destination: KLAX Los Angeles Intl
United States
More flights between these airports :: More routes between these airports
Route: SUMMA1 LKV FRA REBRG IRNMN2
File this flight plan on PilotEdge
Remarks:
Altitude:
(Current/Filed)
37,000ft
Speed:
(Current/Filed)
450kts
Departed: 03-Oct-18 11:40 AM
Arrived: 03-Oct-18 02:00 PM
Distance/Time
Traveled:
829nm/2:20
Distance/Time
To Go:
Arrived

Flight Plot

Page will automatically refresh every two minutes.

Flight plan parsing failed; only flown route is shown


Map Options




Map Legend


Flown Route
Filed Route
Departure Airport
Arrival Airport
Navaid (VOR, NDB)
Fix

Horizontal Profiles

Position Reports

Time Latitude Longitude Heading Altitude Ground
Speed
03-Oct-18 10:51 47.441251 -122.304476 90 434ft 0kts
03-Oct-18 10:52 47.441251 -122.304476 90 434ft 0kts
03-Oct-18 10:53 47.441251 -122.304476 90 434ft 0kts
03-Oct-18 10:54 47.441251 -122.304476 90 434ft 0kts
03-Oct-18 10:55 47.441251 -122.304476 90 434ft 0kts
03-Oct-18 10:56 47.441251 -122.304476 90 434ft 0kts
03-Oct-18 10:57 47.441251 -122.304476 90 434ft 0kts
03-Oct-18 10:58 47.441251 -122.304476 90 434ft 0kts
03-Oct-18 10:59 47.441251 -122.304476 90 434ft 0kts
03-Oct-18 11:00 47.441251 -122.304476 90 434ft 0kts
03-Oct-18 11:01 47.441251 -122.304476 90 434ft 0kts
03-Oct-18 11:02 47.441251 -122.304476 90 434ft 0kts
03-Oct-18 11:03 47.441251 -122.304476 90 434ft 0kts
03-Oct-18 11:04 47.441251 -122.304476 90 434ft 0kts
03-Oct-18 11:05 47.441251 -122.304476 90 434ft 0kts
03-Oct-18 11:06 47.441251 -122.304476 90 434ft 0kts
03-Oct-18 11:07 47.441251 -122.304476 90 434ft 0kts
03-Oct-18 11:08 47.441251 -122.304476 90 434ft 0kts
03-Oct-18 11:09 47.441251 -122.304476 90 434ft 0kts
03-Oct-18 11:10 47.441251 -122.304476 90 434ft 0kts
03-Oct-18 11:11 47.441251 -122.304476 90 434ft 0kts
03-Oct-18 11:12 47.441251 -122.304476 90 434ft 0kts
03-Oct-18 11:13 47.441251 -122.304476 90 434ft 0kts
03-Oct-18 11:14 47.441251 -122.304476 90 434ft 0kts
03-Oct-18 11:15 47.441251 -122.304476 90 434ft 0kts
03-Oct-18 11:16 47.441251 -122.304476 90 434ft 0kts
03-Oct-18 11:17 47.441251 -122.304476 90 434ft 0kts
03-Oct-18 11:18 47.441251 -122.304476 90 434ft 0kts
03-Oct-18 11:19 47.441251 -122.304476 90 434ft 0kts
03-Oct-18 11:20 47.441251 -122.304476 90 434ft 0kts
03-Oct-18 11:21 47.441251 -122.304476 90 434ft 0kts
03-Oct-18 11:22 47.441251 -122.304476 90 434ft 0kts
03-Oct-18 11:23 47.441251 -122.304476 90 434ft 0kts
03-Oct-18 11:24 47.441251 -122.304476 90 434ft 0kts
03-Oct-18 11:25 47.441251 -122.304476 90 434ft 0kts
03-Oct-18 11:26 47.441251 -122.304476 90 434ft 0kts
03-Oct-18 11:27 47.441251 -122.304477 90 434ft 0kts
03-Oct-18 11:28 47.441253 -122.305180 90 434ft 2kts
03-Oct-18 11:29 47.441452 -122.305430 180 434ft 0kts
03-Oct-18 11:30 47.441451 -122.305430 180 434ft 0kts
03-Oct-18 11:31 47.441451 -122.305430 180 434ft 0kts
03-Oct-18 11:32 47.441444 -122.305671 293 434ft 3kts
03-Oct-18 11:33 47.442859 -122.306388 3 434ft 8kts
03-Oct-18 11:34 47.444621 -122.306358 4 434ft 7kts
03-Oct-18 11:35 47.446981 -122.306333 2 434ft 13kts
03-Oct-18 11:36 47.450932 -122.306304 359 434ft 10kts
03-Oct-18 11:37 47.454182 -122.306263 1 434ft 13kts
03-Oct-18 11:38 47.458774 -122.306238 359 434ft 20kts
03-Oct-18 11:39 47.463038 -122.306299 357 434ft 10kts
03-Oct-18 11:40 47.463633 -122.308112 267 434ft 7kts
03-Oct-18 11:41 47.463627 -122.310341 270 434ft 10kts
03-Oct-18 11:42 47.455460 -122.311034 181 434ft 136kts
03-Oct-18 11:43 47.399785 -122.314602 185 3406ft 240kts
03-Oct-18 11:44 47.328689 -122.299822 163 6366ft 277kts
03-Oct-18 11:45 47.254674 -122.267048 162 9002ft 284kts
03-Oct-18 11:46 47.178841 -122.233442 162 8975ft 287kts
03-Oct-18 11:47 47.101372 -122.199267 162 10652ft 318kts
03-Oct-18 11:48 47.015731 -122.161620 162 13923ft 331kts
03-Oct-18 11:49 46.925728 -122.122183 162 16944ft 345kts
03-Oct-18 11:50 46.838031 -122.083899 161 19513ft 359kts
03-Oct-18 11:51 46.740228 -122.041353 161 21994ft 376kts
03-Oct-18 11:52 46.638319 -121.997172 160 24235ft 392kts
03-Oct-18 11:53 46.531064 -121.954817 162 26293ft 409kts
03-Oct-18 11:54 46.419957 -121.912441 161 28165ft 424kts
03-Oct-18 11:55 46.304937 -121.868674 161 30093ft 433kts
03-Oct-18 11:56 46.189293 -121.824821 161 32104ft 432kts
03-Oct-18 11:57 46.073290 -121.780980 161 33857ft 433kts
03-Oct-18 11:58 45.957377 -121.737326 162 35540ft 429kts
03-Oct-18 11:59 45.848200 -121.696358 162 36880ft 426kts
03-Oct-18 12:00 45.731798 -121.652822 163 37112ft 446kts
03-Oct-18 12:01 45.608643 -121.606954 163 37112ft 471kts
03-Oct-18 12:02 45.482253 -121.560089 163 37101ft 471kts
03-Oct-18 12:03 45.355658 -121.513278 164 37109ft 465kts
03-Oct-18 12:04 45.232406 -121.467903 166 37103ft 453kts
03-Oct-18 12:05 45.110739 -121.423365 166 37083ft 455kts
03-Oct-18 12:06 44.988690 -121.378804 166 37078ft 453kts
03-Oct-18 12:07 44.868662 -121.335157 167 37073ft 454kts
03-Oct-18 12:08 44.747066 -121.291089 167 37024ft 454kts
03-Oct-18 12:09 44.624962 -121.247049 167 37026ft 454kts
03-Oct-18 12:10 44.503231 -121.203341 167 37020ft 454kts
03-Oct-18 12:11 44.381338 -121.159735 167 37019ft 454kts
03-Oct-18 12:12 44.259647 -121.116334 167 37029ft 454kts
03-Oct-18 12:13 44.157596 -121.080157 167 37020ft 456kts
03-Oct-18 12:14 44.015295 -121.029851 167 37022ft 454kts
03-Oct-18 12:15 43.913783 -120.994121 167 37021ft 454kts
03-Oct-18 12:16 43.773436 -120.944927 167 37021ft 454kts
03-Oct-18 12:17 43.671746 -120.909431 167 37021ft 454kts
03-Oct-18 12:18 43.529060 -120.859836 167 37021ft 454kts
03-Oct-18 12:19 43.427176 -120.824575 167 37022ft 454kts
03-Oct-18 12:20 43.305066 -120.782481 167 37022ft 454kts
03-Oct-18 12:21 43.182847 -120.740530 167 37022ft 454kts
03-Oct-18 12:22 43.060798 -120.698820 167 37022ft 454kts
03-Oct-18 12:23 42.938878 -120.657335 167 37052ft 454kts
03-Oct-18 12:24 42.818377 -120.616511 167 37049ft 454kts
03-Oct-18 12:25 42.696317 -120.575341 167 37049ft 454kts
03-Oct-18 12:26 42.574200 -120.534333 167 37049ft 453kts
03-Oct-18 12:27 42.451370 -120.498833 174 37061ft 452kts
03-Oct-18 12:28 42.326758 -120.478180 174 37050ft 451kts
03-Oct-18 12:29 42.202598 -120.457295 174 37049ft 451kts
03-Oct-18 12:30 42.078488 -120.436386 174 37050ft 451kts
03-Oct-18 12:31 41.954494 -120.415489 174 37050ft 451kts
03-Oct-18 12:32 41.832105 -120.394857 174 37050ft 451kts
03-Oct-18 12:33 41.708294 -120.373983 174 37050ft 451kts
03-Oct-18 12:34 41.584368 -120.353083 174 37050ft 450kts
03-Oct-18 12:35 41.461465 -120.332347 175 37047ft 450kts
03-Oct-18 12:36 41.337797 -120.311482 175 37047ft 450kts
03-Oct-18 12:37 41.214049 -120.290603 175 37047ft 449kts
03-Oct-18 12:38 41.090106 -120.269685 175 37047ft 449kts
03-Oct-18 12:39 40.966682 -120.248849 175 37047ft 449kts
03-Oct-18 12:40 40.851168 -120.229346 175 37048ft 449kts
03-Oct-18 12:41 40.727539 -120.208469 175 37103ft 448kts
03-Oct-18 12:42 40.604488 -120.187686 175 37101ft 448kts
03-Oct-18 12:43 40.481142 -120.166850 174 37102ft 448kts
03-Oct-18 12:44 40.358317 -120.146099 174 37102ft 447kts
03-Oct-18 12:45 40.235080 -120.125274 174 37101ft 447kts
03-Oct-18 12:46 40.112432 -120.104518 175 37100ft 438kts
03-Oct-18 12:47 39.992141 -120.084222 175 37101ft 438kts
03-Oct-18 12:48 39.873839 -120.064223 175 37103ft 438kts
03-Oct-18 12:49 39.755398 -120.044197 175 37103ft 438kts
03-Oct-18 12:50 39.635103 -120.023854 175 37102ft 438kts
03-Oct-18 12:51 39.514452 -120.003449 175 37102ft 438kts
03-Oct-18 12:52 39.394185 -119.983106 175 37102ft 437kts
03-Oct-18 12:53 39.274209 -119.962809 175 37075ft 437kts
03-Oct-18 12:54 39.153843 -119.942445 175 37052ft 438kts
03-Oct-18 12:55 39.033799 -119.922126 175 37046ft 437kts
03-Oct-18 12:56 38.913442 -119.901764 175 37048ft 437kts
03-Oct-18 12:57 38.796482 -119.881974 175 37049ft 437kts
03-Oct-18 12:58 38.676288 -119.861631 175 37129ft 438kts
03-Oct-18 12:59 38.556329 -119.841325 174 37101ft 438kts
03-Oct-18 13:00 38.435852 -119.820929 174 37076ft 437kts
03-Oct-18 13:01 38.315645 -119.800572 174 37075ft 437kts
03-Oct-18 13:02 38.195455 -119.780227 174 37075ft 437kts
03-Oct-18 13:03 38.075388 -119.759897 174 37075ft 437kts
03-Oct-18 13:04 37.955285 -119.739558 174 37074ft 437kts
03-Oct-18 13:05 37.837357 -119.719587 174 37077ft 437kts
03-Oct-18 13:06 37.717440 -119.699278 174 37077ft 437kts
03-Oct-18 13:07 37.597467 -119.678958 174 37077ft 437kts
03-Oct-18 13:08 37.476830 -119.658524 174 37130ft 438kts
03-Oct-18 13:09 37.356842 -119.638200 174 37099ft 438kts
03-Oct-18 13:10 37.236543 -119.617821 174 36967ft 437kts
03-Oct-18 13:11 37.116515 -119.597488 174 36967ft 437kts
03-Oct-18 13:12 36.996343 -119.597088 183 36968ft 435kts
03-Oct-18 13:13 36.877470 -119.599360 182 36970ft 435kts
03-Oct-18 13:14 36.756937 -119.601465 182 36969ft 435kts
03-Oct-18 13:15 36.636309 -119.603545 182 36969ft 435kts
03-Oct-18 13:16 36.515667 -119.605618 182 36968ft 435kts
03-Oct-18 13:17 36.395063 -119.607683 182 36968ft 435kts
03-Oct-18 13:18 36.274724 -119.609738 182 36968ft 435kts
03-Oct-18 13:19 36.153915 -119.611793 182 36967ft 435kts
03-Oct-18 13:20 36.033593 -119.613834 182 36967ft 435kts
03-Oct-18 13:21 35.916591 -119.638605 198 36962ft 431kts
03-Oct-18 13:22 35.806325 -119.680447 198 36969ft 430kts
03-Oct-18 13:23 35.692438 -119.723132 198 36969ft 430kts
03-Oct-18 13:24 35.573827 -119.755569 193 36963ft 445kts
03-Oct-18 13:25 35.453053 -119.784608 193 36941ft 443kts
03-Oct-18 13:26 35.332802 -119.813512 190 36935ft 443kts
03-Oct-18 13:27 35.227266 -119.763553 147 35956ft 414kts
03-Oct-18 13:28 35.135014 -119.680188 144 33889ft 415kts
03-Oct-18 13:29 35.043047 -119.594866 143 31824ft 419kts
03-Oct-18 13:30 34.950530 -119.509019 143 29750ft 421kts
03-Oct-18 13:31 34.870326 -119.435949 144 28012ft 430kts
03-Oct-18 13:32 34.780968 -119.356120 144 26128ft 413kts
03-Oct-18 13:33 34.709256 -119.292736 146 24750ft 407kts
03-Oct-18 13:34 34.619624 -119.214802 146 22898ft 395kts
03-Oct-18 13:35 34.532008 -119.138694 145 21067ft 384kts
03-Oct-18 13:36 34.448687 -119.064884 145 19313ft 374kts
03-Oct-18 13:37 34.366065 -118.993146 145 17517ft 363kts
03-Oct-18 13:38 34.286893 -118.922405 143 15723ft 356kts
03-Oct-18 13:39 34.211698 -118.853646 143 14043ft 325kts
03-Oct-18 13:40 34.143674 -118.788260 137 12522ft 318kts
03-Oct-18 13:41 34.079505 -118.717836 139 11126ft 307kts
03-Oct-18 13:42 34.029847 -118.644769 100 9872ft 276kts
03-Oct-18 13:43 34.019744 -118.555700 97 8606ft 262kts
03-Oct-18 13:44 34.012269 -118.478412 97 7580ft 242kts
03-Oct-18 13:45 34.019724 -118.400682 79 6481ft 237kts
03-Oct-18 13:46 34.031409 -118.338029 77 5947ft 227kts
03-Oct-18 13:47 34.045600 -118.268013 78 4967ft 208kts
03-Oct-18 13:48 34.057025 -118.207658 79 3989ft 182kts
03-Oct-18 13:49 34.067174 -118.147257 79 4026ft 193kts
03-Oct-18 13:50 34.077621 -118.080246 79 4039ft 215kts
03-Oct-18 13:51 34.088577 -118.010043 79 4030ft 214kts
03-Oct-18 13:52 34.090170 -117.940854 135 3985ft 216kts
03-Oct-18 13:53 34.048056 -117.966146 241 4007ft 214kts
03-Oct-18 13:54 34.019560 -118.027897 241 4026ft 214kts
03-Oct-18 13:55 33.990943 -118.089874 239 3992ft 204kts
03-Oct-18 13:56 33.978221 -118.149980 263 3977ft 194kts
03-Oct-18 13:57 33.972047 -118.208943 262 3332ft 172kts
03-Oct-18 13:58 33.966714 -118.260368 262 2414ft 146kts
03-Oct-18 13:59 33.961833 -118.307762 262 1701ft 149kts
03-Oct-18 14:00 33.956892 -118.356008 262 893ft 149kts
03-Oct-18 14:01 33.952014 -118.402628 262 162ft 142kts
03-Oct-18 14:02 33.948707 -118.426508 230 118ft 13kts
03-Oct-18 14:03 33.948402 -118.426908 223 117ft 6kts
03-Oct-18 14:04 33.946437 -118.426257 82 115ft 11kts
03-Oct-18 14:05 33.947049 -118.420438 82 122ft 19kts
03-Oct-18 14:06 33.947795 -118.413858 74 126ft 19kts
03-Oct-18 14:07 33.948043 -118.408984 144 127ft 2kts
03-Oct-18 14:08 33.947174 -118.408428 140 126ft 2kts
03-Oct-18 14:09 33.947020 -118.408274 140 126ft 0kts
03-Oct-18 14:10 33.947020 -118.408274 140 126ft 0kts
03-Oct-18 14:11 33.947020 -118.408274 140 126ft 0kts
03-Oct-18 14:12 33.947020 -118.408274 140 126ft 0kts

Navigation Log

Ident Type
Flight plan parsing failed, navigation log unavailable